Last 24 Hours

Thomas Mountain

10 Minute Data | America/Los_Angeles
as of 5/5/26 5:29 PM PDT
Date & Time Temp (°F) Dew Pt (°F) RH (%) Wind Spd (mph) Wind Dir (°) Wind Gust (mph) Wind Gst Dir (°) Daily Max Temp (°F) Daily Min Temp (°F)
5/5/26 - 1720 44.9 38.4 78 9.6 W | 267 19.7 SW | 235 48.4 37.8
5/5/26 - 1710 45.1 38.4 77 11.0 WSW | 254 17.8 WSW | 250 48.4 37.8
5/5/26 - 1700 44.9 38.4 78 11.3 W | 280 19.4 WNW | 288 48.4 37.8
5/5/26 - 1650 45.2 38.6 78 11.8 W | 262 20.1 W | 279 48.4 37.8
5/5/26 - 1640 45.2 38.0 76 11.9 W | 276 20.1 WSW | 252 48.4 37.8
5/5/26 - 1630 45.0 38.2 77 9.7 WNW | 282 16.6 W | 272 48.4 37.8
5/5/26 - 1620 44.0 38.5 81 12.0 WNW | 284 18.0 W | 275 48.4 37.8
5/5/26 - 1610 44.7 38.3 78 11.1 W | 272 20.1 W | 280 48.4 37.8
5/5/26 - 1600 43.9 37.7 78 10.1 WNW | 283 17.2 W | 276 48.4 37.8
5/5/26 - 1550 44.3 37.6 77 11.3 W | 275 21.0 W | 264 48.4 37.8
5/5/26 - 1540 45.0 37.8 76 9.3 W | 263 15.0 WSW | 245 48.4 37.8
5/5/26 - 1530 45.6 37.3 73 9.8 W | 280 16.7 W | 268 48.4 37.8
5/5/26 - 1520 44.7 37.4 75 9.2 WNW | 295 17.4 NW | 307 48.4 37.8
5/5/26 - 1510 45.6 36.4 70 10.0 W | 263 21.4 W | 279 48.4 37.8
5/5/26 - 1500 46.6 36.2 67 12.3 WSW | 251 20.5 WSW | 255 48.4 37.8
5/5/26 - 1450 47.2 34.4 61 12.7 WSW | 258 20.8 WSW | 247 48.4 37.8
5/5/26 - 1440 46.2 34.8 64 12.8 WSW | 255 22.6 WSW | 238 47.2 37.8
5/5/26 - 1430 46.0 34.2 63 11.0 W | 275 17.5 WSW | 247 46.7 37.8
5/5/26 - 1420 45.8 34.9 66 10.1 W | 277 19.5 WSW | 255 46.7 37.8
5/5/26 - 1410 44.5 36.2 72 10.0 WNW | 285 16.5 WNW | 283 45.4 37.8
5/5/26 - 1400 44.9 37.6 76 7.9 WNW | 292 14.1 WNW | 286 45.4 37.8
5/5/26 - 1350 44.5 37.4 76 8.9 W | 271 16.7 W | 270 45.1 37.8
5/5/26 - 1340 43.5 36.3 76 9.4 W | 268 17.1 W | 271 44.2 37.8
5/5/26 - 1330 43.4 36.5 76 9.5 WSW | 254 16.2 W | 259 44.0 37.8
5/5/26 - 1320 43.6 36.4 76 9.9 W | 263 21.5 W | 262 44.0 37.8
5/5/26 - 1310 42.9 36.5 78 10.1 W | 267 17.1 WSW | 237 43.8 37.8
5/5/26 - 1300 43.0 38.3 83 9.9 W | 259 20.0 WSW | 252 43.7 37.8
5/5/26 - 1250 41.2 38.7 91 7.5 WNW | 284 13.0 W | 272 41.8 37.8
5/5/26 - 1240 40.7 38.5 92 6.4 WNW | 283 11.5 WNW | 282 41.2 37.8
5/5/26 - 1230 39.9 38.4 94 8.3 WNW | 285 13.9 W | 262 40.2 37.8
5/5/26 - 1220 39.7 38.8 97 8.4 W | 275 16.4 W | 267 40.2 37.8
5/5/26 - 1210 39.0 38.6 98 7.4 W | 269 12.4 W | 268 40.2 37.8
5/5/26 - 1200 39.7 39.7 100 7.0 W | 276 13.5 WNW | 284 40.2 37.8
5/5/26 - 1150 38.5 38.5 100 8.8 WNW | 291 15.8 W | 268 39.6 37.8
5/5/26 - 1140 38.2 38.2 100 10.5 WNW | 283 16.9 WNW | 289 39.6 37.8
5/5/26 - 1130 38.5 38.4 100 7.5 WNW | 290 15.6 WNW | 293 39.6 37.8
5/5/26 - 1120 38.3 38.3 100 9.0 WNW | 282 16.2 WNW | 282 39.6 37.8
5/5/26 - 1110 38.7 38.6 100 8.9 W | 261 15.6 W | 261 39.6 37.8
5/5/26 - 1100 38.7 38.7 100 9.1 WSW | 256 16.1 WSW | 257 39.6 37.8
5/5/26 - 1050 38.3 38.3 100 11.1 WSW | 254 21.3 WSW | 252 39.6 37.8
5/5/26 - 1040 38.6 38.6 100 11.4 WSW | 255 18.5 WSW | 250 39.6 37.8
5/5/26 - 1030 38.6 38.6 100 9.0 W | 261 17.5 W | 267 39.6 37.8
5/5/26 - 1020 38.8 38.8 100 8.4 W | 261 18.0 W | 266 39.6 37.8
5/5/26 - 1010 38.8 38.8 100 11.3 WSW | 250 17.4 WSW | 246 39.6 37.8
5/5/26 - 1000 38.9 38.9 100 12.2 WSW | 248 18.1 WSW | 244 39.6 37.8
5/5/26 - 0950 38.7 38.7 100 12.0 WSW | 251 21.0 WSW | 252 39.6 37.8
5/5/26 - 0940 38.7 38.7 100 13.2 WSW | 251 20.4 WSW | 246 39.6 37.8
5/5/26 - 0930 38.8 38.8 100 12.7 WSW | 253 21.0 WSW | 256 39.6 37.8
5/5/26 - 0920 39.2 39.2 100 10.9 WSW | 258 19.6 WSW | 252 39.6 37.8
5/5/26 - 0910 39.0 38.9 100 9.8 WSW | 255 18.4 W | 261 39.6 37.8
5/5/26 - 0900 39.0 38.9 100 10.7 WSW | 256 17.4 WSW | 250 39.6 37.8
5/5/26 - 0850 39.2 39.2 100 10.9 W | 259 17.7 WSW | 252 39.6 37.8
5/5/26 - 0840 39.0 39.0 100 9.6 W | 273 15.3 W | 275 39.6 37.8
5/5/26 - 0830 38.5 38.5 100 9.4 W | 272 15.9 WSW | 255 39.2 37.8
5/5/26 - 0820 38.5 38.5 100 11.0 W | 265 16.4 W | 276 39.2 37.8
5/5/26 - 0810 38.8 38.8 100 9.6 WSW | 258 16.1 W | 275 39.2 37.8
5/5/26 - 0800 38.8 38.7 100 9.8 WSW | 258 21.4 W | 259 39.2 37.8
5/5/26 - 0750 38.7 38.6 100 10.1 W | 280 17.7 WNW | 286 39.2 37.8
5/5/26 - 0740 38.7 38.7 100 7.8 WNW | 286 15.0 W | 269 39.2 37.8
5/5/26 - 0730 38.3 38.3 100 8.8 WNW | 299 12.9 NW | 315 39.2 37.8
5/5/26 - 0720 38.2 38.1 100 8.3 WNW | 289 13.0 W | 268 39.2 37.8
5/5/26 - 0710 38.0 37.9 100 9.0 WNW | 288 16.3 W | 271 39.2 37.8
5/5/26 - 0700 37.9 37.9 100 10.6 WNW | 284 16.2 WNW | 295 39.2 37.8
5/5/26 - 0650 38.0 38.0 100 9.7 WNW | 285 16.4 W | 265 39.2 37.8
5/5/26 - 0640 37.9 37.9 100 11.0 W | 281 16.2 WNW | 294 39.2 37.8
5/5/26 - 0630 38.0 37.9 100 10.6 W | 277 17.0 W | 268 39.2 37.8
5/5/26 - 0620 38.1 38.1 100 8.2 W | 266 15.7 W | 275 39.2 37.8
5/5/26 - 0610 38.4 38.3 100 9.4 W | 262 17.5 WNW | 290 39.2 37.8
5/5/26 - 0600 38.4 38.4 100 10.4 W | 260 16.8 W | 265 39.2 37.8
5/5/26 - 0550 38.4 38.4 100 10.0 W | 280 15.9 W | 274 39.2 37.8
5/5/26 - 0540 38.5 38.5 100 9.6 W | 275 15.1 W | 274 39.2 37.8
5/5/26 - 0530 38.6 38.5 100 8.3 W | 276 14.7 W | 270 39.2 37.8
5/5/26 - 0520 38.6 38.5 100 9.3 W | 276 13.5 W | 272 39.2 37.8
5/5/26 - 0510 38.6 38.5 100 9.3 W | 278 15.2 W | 260 39.2 37.8
5/5/26 - 0500 38.6 38.5 100 7.6 W | 278 13.7 W | 270 39.2 37.8
5/5/26 - 0450 38.4 38.3 100 5.7 W | 268 10.4 WSW | 250 39.2 37.8
5/5/26 - 0440 38.2 38.1 100 6.2 W | 280 13.1 WNW | 296 39.2 37.8
5/5/26 - 0430 37.8 37.8 100 6.7 NNW | 345 10.3 NW | 307 39.2 37.8
5/5/26 - 0420 37.8 37.8 100 7.0 N | 6 9.9 N | 5 39.2 37.8
5/5/26 - 0410 38.1 38.1 100 7.2 N | 5 11.2 N | 11 39.2 37.9
5/5/26 - 0400 38.3 38.2 100 4.3 NW | 318 7.4 WNW | 303 39.2 37.9
5/5/26 - 0350 38.2 38.1 100 6.2 WNW | 289 12.8 W | 273 39.2 37.9
5/5/26 - 0340 38.0 38.0 100 5.3 WNW | 287 9.2 W | 270 39.2 37.9
5/5/26 - 0330 37.9 37.9 100 6.7 WNW | 289 10.6 W | 273 39.2 37.9
5/5/26 - 0320 37.9 37.8 100 7.7 W | 272 13.1 WSW | 254 39.2 37.9
5/5/26 - 0310 38.0 38.0 100 9.2 W | 260 13.7 WSW | 239 39.2 37.9
5/5/26 - 0300 38.1 38.1 100 9.3 W | 269 16.3 W | 274 39.2 37.9
5/5/26 - 0250 38.2 38.0 99 9.8 W | 268 16.1 WNW | 293 39.2 37.9
5/5/26 - 0240 38.5 37.6 97 11.4 WSW | 257 18.6 WSW | 254 39.2 37.9
5/5/26 - 0230 38.4 38.3 100 10.2 W | 279 14.2 WNW | 284 39.0 37.9
5/5/26 - 0220 38.7 38.7 100 10.4 W | 274 15.0 WSW | 256 39.0 37.9
5/5/26 - 0210 38.4 38.4 100 9.7 WNW | 297 15.0 WNW | 288 38.8 37.9
5/5/26 - 0200 38.0 38.0 100 12.0 W | 280 16.4 W | 271 38.6 37.9
5/5/26 - 0150 37.9 37.8 100 13.6 W | 270 18.3 W | 264 38.6 37.9
5/5/26 - 0140 37.9 37.9 100 12.0 W | 261 20.4 WSW | 258 38.6 37.9
5/5/26 - 0130 38.1 38.1 100 11.8 WSW | 252 18.0 W | 263 38.6 38.0
5/5/26 - 0120 38.4 38.4 100 11.5 WSW | 257 16.2 WSW | 251 38.6 38.2
5/5/26 - 0110 38.6 38.5 100 11.6 W | 263 18.6 W | 270 38.6 38.5
5/5/26 - 0100 38.5 38.5 100 11.6 W | 274 18.8 W | 276 47.6 37.9
5/5/26 - 0050 38.4 38.3 100 8.5 WNW | 283 13.4 WNW | 294 47.6 37.9
5/5/26 - 0040 38.4 38.3 99 9.4 W | 274 17.9 W | 277 47.6 37.9
5/5/26 - 0030 38.9 38.6 99 5.4 W | 271 9.5 WSW | 258 47.6 37.9
5/5/26 - 0020 38.9 38.8 100 6.1 NW | 320 10.7 NNW | 339 47.6 37.9
5/5/26 - 0010 38.7 38.7 100 4.0 WNW | 289 7.6 WNW | 298 47.6 37.9
5/5/26 - 0000 39.2 39.1 100 6.6 NNW | 340 11.8 NNW | 348 47.6 37.9
5/4/26 - 2350 39.0 39.0 100 7.1 N | 349 12.9 NNW | 340 47.6 37.9
5/4/26 - 2340 39.1 39.0 100 6.4 NNW | 339 11.5 NNW | 344 47.6 37.9
5/4/26 - 2330 38.9 38.8 100 6.2 NNW | 327 13.3 N | 7 47.6 37.9
5/4/26 - 2320 38.9 38.8 100 4.0 WNW | 294 8.5 N | 1 47.6 37.9
5/4/26 - 2310 38.7 38.7 100 7.8 NNE | 15 12.7 NNE | 18 47.6 37.9
5/4/26 - 2300 38.2 38.1 100 5.2 WNW | 292 9.0 WNW | 299 47.6 37.9
5/4/26 - 2250 38.2 38.2 100 5.7 WNW | 290 9.9 W | 264 47.6 37.9
5/4/26 - 2240 38.3 38.3 100 6.9 WNW | 298 11.8 NW | 317 47.6 37.9
5/4/26 - 2230 38.2 38.2 100 7.8 WNW | 287 15.0 W | 270 47.6 37.9
5/4/26 - 2220 38.3 38.3 100 8.3 W | 280 13.3 WNW | 284 47.6 37.9
5/4/26 - 2210 39.0 39.0 100 7.9 W | 265 15.1 WNW | 290 47.6 37.9
5/4/26 - 2200 39.1 39.0 100 7.4 W | 276 14.2 W | 263 47.6 37.9
5/4/26 - 2150 39.2 39.2 100 9.1 W | 268 19.4 WNW | 290 47.6 37.9
5/4/26 - 2140 39.5 39.5 100 6.4 W | 265 11.1 WSW | 256 47.6 37.9
5/4/26 - 2130 39.6 39.6 100 8.8 W | 268 18.8 WSW | 248 47.6 37.9
5/4/26 - 2120 39.7 39.7 100 9.2 W | 262 19.1 W | 272 47.6 37.9
5/4/26 - 2110 39.8 39.8 100 7.3 W | 280 14.1 WSW | 258 47.6 37.9
5/4/26 - 2100 40.0 40.0 100 7.3 W | 266 13.2 WSW | 254 47.6 37.9
5/4/26 - 2050 40.0 40.0 100 7.8 W | 276 19.6 WNW | 283 47.6 37.9
5/4/26 - 2040 40.1 40.1 100 8.2 W | 277 16.5 W | 267 47.6 37.9
5/4/26 - 2030 40.1 40.1 100 10.8 WNW | 282 19.4 W | 259 47.6 37.9
5/4/26 - 2020 40.3 40.2 100 10.1 W | 273 18.0 WNW | 282 47.6 37.9
5/4/26 - 2010 40.4 40.3 100 9.7 W | 271 19.4 WNW | 286 47.6 37.9
5/4/26 - 2000 40.6 40.4 99 10.4 W | 262 19.5 W | 261 47.6 37.9
5/4/26 - 1950 40.9 40.5 98 13.8 W | 260 24.0 WSW | 258 47.6 37.9
5/4/26 - 1940 41.2 40.6 98 12.8 WSW | 256 25.9 WSW | 256 47.6 37.9
5/4/26 - 1930 41.3 40.6 98 11.4 W | 260 19.5 WSW | 252 47.6 37.9
5/4/26 - 1920 41.3 40.8 98 12.0 WSW | 257 25.0 WSW | 252 47.6 37.9
5/4/26 - 1910 41.4 40.8 98 11.8 WSW | 254 18.0 WSW | 249 47.6 37.9
5/4/26 - 1900 41.9 40.7 96 14.2 WSW | 249 21.2 WSW | 254 47.6 37.9
5/4/26 - 1850 42.5 40.6 93 13.5 WSW | 254 25.6 W | 261 47.6 37.9
5/4/26 - 1840 43.0 40.5 91 15.4 WSW | 253 24.1 WSW | 253 47.6 37.9
5/4/26 - 1830 43.4 40.3 89 12.3 WSW | 257 22.0 WSW | 250 47.6 37.9
5/4/26 - 1820 43.6 40.4 88 13.0 WSW | 258 23.4 W | 267 47.6 37.9
5/4/26 - 1810 43.7 40.2 87 15.2 WSW | 254 24.8 W | 265 47.6 37.9
5/4/26 - 1800 44.2 39.3 83 12.8 W | 260 23.0 WSW | 252 47.6 37.9
5/4/26 - 1750 44.5 36.9 74 10.6 W | 278 19.4 WNW | 282 47.6 37.9
5/4/26 - 1740 44.7 36.6 73 12.8 W | 277 22.7 WNW | 293 47.6 37.9
5/4/26 - 1730 44.8 36.6 73 11.7 W | 275 23.0 WSW | 250 47.6 37.9
5/4/26 - 1720 44.9 36.8 73 13.3 W | 279 25.8 W | 262 47.6 37.9
Max 47.2 40.8 100 15.4 - 25.9 - 48.4 38.5
Avg 40.3 38.4 94 9.6 - 16.7 - - -
Min 37.8 34.2 61 4.0 - 7.4 - 38.6 37.8